Tiempo atmosférico en la estación meteorológica de Fuente De Cantos, Badajoz (602 m.)



Fecha
DESCASC
Temp. máxima en grados centígrados (hora)
DESCASC
Temp. mínima en grados centígrados (hora)
DESCASC
Temp. media en grados centígrados
DESCASC
Racha de viento máxima en m/sg (hora)
DESCASC
Velocidad máxima media en intervalos de 10 minutos(hora)
DESCASC
Precipitaciones diarias en mm
DESCASC
Precipitaciones de 00:00 a 06:00 en mm
DESCASC
Precipitaciones de 06:00 a 12:00 en mm
DESCASC
Precipitaciones de 12:00 a 18:00 en mm
DESCASC
Precipitaciones de 18:00 a 24:00 en mm
DESCASC
28-02-2021 14.8 (14:50) 6.7 (06:00) 10.8 9.17 (15:00) 6.11 (10:30) 0 0 0 0 0
27-02-2021 16.3 (15:40) 6 (07:00) 11.1 6.94 (11:40) 5.28 (11:40) 0 0 0 0 0
26-02-2021 15.4 (16:20) 8.3 (05:20) 11.8 7.5 (12:40) 5.56 (12:40) 0 0 0 0 0
25-02-2021 14.3 (13:40) 6.8 (00:00) 10.6 9.44 (01:50) 6.94 (01:00) 0 0 0 0 0
24-02-2021 15.5 (15:30) 3.8 (00:00) 9.6 14.44 (11:50) 11.11 (11:50) 0 0 0 0 0
23-02-2021 14.9 (15:50) 5.3 (00:00) 10.1 9.44 (12:30) 6.67 (12:30) 0 0 0 0 0
22-02-2021 12.2 (16:50) 1.9 (00:00) 7 8.61 (13:00) 5.28 (14:00) 0 0 0 0 0
21-02-2021 12.3 (02:20) 4.4 (00:00) 8.4 25 (04:40) 16.94 (03:00) 11.8 0 11.2 0.6 0
20-02-2021 15.2 (16:40) 8.6 (00:00) 11.9 17.78 (11:30) 13.33 (10:40) 0 0 0 0 0
19-02-2021 16.6 (15:10) 5.9 (00:00) 11.3 11.67 (23:20) 8.61 (23:20) 0 0 0 0 0
18-02-2021 17.7 (16:40) 9 (00:00) 13.4 6.67 (13:50) 4.72 (14:10) 0 0 0 0 0
17-02-2021 20.3 (17:00) 8.4 (00:00) 14.3 5.83 (17:40) 4.72 (05:40) 0 0 0 0 0
16-02-2021 18.5 (16:20) 5.4 (00:00) 12 10 (00:30) 6.94 (00:20) 0 0 0 0 0
15-02-2021 16.8 (15:00) 7.6 (00:00) 12.2 13.89 (09:00) 10.28 (07:30) 0 0 0 0 0
14-02-2021 18.8 (15:40) 8.5 (00:00) 13.6 9.72 (21:40) 8.33 (21:40) 0 0 0 0 0
13-02-2021 16.7 (17:20) 5.5 (00:00) 11.1 4.72 (13:40) 3.61 (20:50) 0 0 0 0 0
12-02-2021 14.1 (16:40) 7.6 (00:00) 10.9 12.5 (05:40) 9.17 (05:40) 0.6 0.6 0 0 0
11-02-2021 14.8 (15:30) 9.6 (00:00) 12.2 6.94 (00:20) 5.56 (01:30) 0 0 0 0 0
10-02-2021 12.7 (16:30) 8.6 (00:00) 10.7 16.39 (04:10) 12.5 (04:10) 6.6 1.6 2.8 0 2.2
09-02-2021 11 (15:10) 6.8 (00:00) 8.9 19.72 (15:20) 13.89 (15:10) 6.6 0 0 6.2 0.4
08-02-2021 12.1 (15:20) 6.8 (00:00) 9.5 21.39 (04:50) 14.17 (04:40) 4.8 4.8 0 0 0
07-02-2021 8 (23:59) 4.8 (00:00) 6.4 12.22 (17:20) 9.72 (17:20) 0.2 0.2 0 0 0
06-02-2021 9 (13:10) 6.7 (00:00) 7.8 9.17 (14:50) 6.94 (14:50) 5.8 1.8 0.8 1 2.2
05-02-2021 10 (15:30) 7.8 (00:00) 8.9 12.22 (19:00) 9.17 (18:50) 15.6 0.8 7.8 6.2 0.8
04-02-2021 12 (15:20) 7.3 (00:00) 9.7 14.17 (12:10) 11.39 (12:10) 1 0.2 0 0.8 0
03-02-2021 13.9 (16:20) 8.3 (00:00) 11.1 11.94 (19:20) 9.17 (19:20) 0 0 0 0 0

Gráficas

Temp. máximas Temp. mínimas Temp. medias Precipitaciones Rachas de viento máximas Velocidades máximas media en intervalos de 10 minutos

Datos horarios

Fecha y hora oficial Temperatura (ºC) Velocidad del viento (km/h) Dirección del viento Racha (km/h) Dirección de racha Precipitación (mm) Presión (hPa) Tendencia (hPa) Humedad (%)
2021-03-04 23:00:00 10.2 14 Este 22 Sudeste 0 -- -- 81
2021-03-04 22:00:00 10.9 13 Este 20 Este 0 -- -- 79
2021-03-04 21:00:00 11.1 13 Sudeste 14 Sudeste 0 -- -- 77
2021-03-04 20:00:00 11.6 10 Sudeste 12 Sudeste 0 -- -- 75
2021-03-04 19:00:00 12.4 8 Sur 18 Sudeste 0 -- -- 75
2021-03-04 18:00:00 12.4 12 Sudeste 23 Sur 0 -- -- 71
2021-03-04 17:00:00 13.9 17 Sur 25 Sudeste 0 -- -- 67
2021-03-04 16:00:00 12.8 16 Sudeste 24 Sudeste 0 -- -- 69
2021-03-04 15:00:00 12.6 15 Sudeste 26 Sudeste 0 -- -- 68
2021-03-04 14:00:00 13 21 Sudeste 35 Sudeste 0 -- -- 65
2021-03-04 13:00:00 12.6 26 Sudeste 45 Sudeste 0 -- -- 68
2021-03-04 12:00:00 12.4 31 Sudeste 44 Este 0 -- -- 69
2021-03-04 11:00:00 10.8 31 Sudeste 44 Este 0 -- -- 78
2021-03-04 10:00:00 8.9 11 Este 23 Este 0 -- -- 90
2021-03-04 09:00:00 7.6 17 Este 31 Sudeste 0 -- -- 94
2021-03-04 08:00:00 7.3 19 Este 27 Este 0 -- -- 95
2021-03-04 07:00:00 6.9 9 Este 18 Sudeste 0 -- -- 95
2021-03-04 06:00:00 8.1 12 Este 18 Este 0 -- -- 93
2021-03-04 05:00:00 8.4 10 Sudeste 21 Este 0 -- -- 94
2021-03-04 04:00:00 8.4 17 Este 22 Este 0 -- -- 90
2021-03-04 03:00:00 9.9 15 Este 20 Este 0 -- -- 80
2021-03-04 02:00:00 10.6 14 Sudeste 20 Este 0 -- -- 78
2021-03-04 01:00:00 11.7 10 Sudeste 18 Sudeste 0 -- -- 73
2021-03-04 00:00:00 12.1 14 Este 16 Este 0 -- -- 72
2021-03-03 23:00:00 11.7 12 Este 17 Este 0 -- -- 71
2021-03-03 22:00:00 12.5 16 Este 19 Este 0 -- -- 67
2021-03-03 21:00:00 12.5 18 Este 20 Este 0 -- -- 67
2021-03-03 20:00:00 13.2 14 Este 16 Este 0 -- -- 67
2021-03-03 19:00:00 14.6 13 Este 15 Nordeste 0 -- -- 66
2021-03-03 18:00:00 16.6 13 Este 20 Nordeste 0 -- -- 62
2021-03-03 17:00:00 17.6 8 Este 22 Nordeste 0 -- -- 59
2021-03-03 16:00:00 18.6 5 Este 18 Este 0 -- -- 54
2021-03-03 15:00:00 18.1 9 Este 17 Este 0 -- -- 53
2021-03-03 14:00:00 18.1 10 Sudeste 17 Sudeste 0 -- -- 57
2021-03-03 13:00:00 17.5 6 Sudeste 15 Sudeste 0 -- -- 58
2021-03-03 12:00:00 16.1 10 Este 17 Este 0 -- -- 70
2021-03-03 11:00:00 14.7 11 Este 18 Este 0 -- -- 70
2021-03-03 10:00:00 13 13 Este 19 Este 0 -- -- 75
2021-03-03 09:00:00 12.1 12 Este 21 Este 0 -- -- 74
2021-03-03 08:00:00 10.9 14 Este 20 Este 0 -- -- 79
2021-03-03 07:00:00 10 12 Este 15 Sudeste 0 -- -- 82
2021-03-03 06:00:00 10.2 14 Este 20 Este 0 -- -- 81
2021-03-03 05:00:00 11.3 13 Este 18 Este 0 -- -- 77
2021-03-03 04:00:00 10.6 16 Este 19 Este 0 -- -- 80
2021-03-03 03:00:00 9.7 15 Este 19 Este 0 -- -- 84
2021-03-03 02:00:00 9.8 14 Este 16 Este 0 -- -- 84
2021-03-03 01:00:00 9.6 10 Este 16 Este 0 -- -- 85
2021-03-03 00:00:00 9.7 8 Nordeste 9 Este 0 -- -- 86
2021-03-02 23:00:00 9.6 5 Nordeste 13 Nordeste 0 -- -- 89
2021-03-02 22:00:00 9.2 12 Nordeste 14 Nordeste 0 -- -- 90
2021-03-02 21:00:00 10.4 10 Nordeste 14 Norte 0 -- -- 86
2021-03-02 20:00:00 11.2 9 Norte 11 Norte 0 -- -- 83
2021-03-02 19:00:00 12.6 9 Norte 14 Norte 0 -- -- 79
2021-03-02 18:00:00 15 12 Norte 18 Nordeste 0 -- -- 73
2021-03-02 17:00:00 15 12 Norte 16 Norte 0 -- -- 74
2021-03-02 16:00:00 14.5 5 Sur 12 Norte 0 -- -- 76
2021-03-02 15:00:00 14.5 11 Norte 15 Noroeste 0 -- -- 73
2021-03-02 14:00:00 14 8 Oeste 13 Noroeste 0 -- -- 79
2021-03-02 13:00:00 14.6 5 Noroeste 12 Noroeste 0 -- -- 75
2021-03-02 12:00:00 14.2 4 Noroeste 11 Noroeste 0 -- -- 79
2021-03-02 11:00:00 12.9 5 Norte 8 Norte 0 -- -- 82
2021-03-02 10:00:00 11.4 2 Noroeste 6 Sur 0 -- -- 84
2021-03-02 09:00:00 8.8 2 Sudeste 7 Sudeste 0 -- -- 91
2021-03-02 08:00:00 8.5 2 Oeste 6 Norte 0 -- -- 89
2021-03-02 07:00:00 8.2 3 Norte 6 Sudoeste 0 -- -- 88
2021-03-02 06:00:00 9 4 Sudoeste 6 Sur 0 -- -- 85
2021-03-02 05:00:00 9.1 4 Sur -- -- 0 -- -- 85
2021-03-02 04:00:00 9.7 3 Sudeste 6 Sudeste 0 -- -- 84
2021-03-02 03:00:00 9.6 3 Sur 5 Sudeste 0 -- -- 84
2021-03-02 02:00:00 10.1 0 Calma 11 Este 0 -- -- 83
2021-03-02 01:00:00 9.1 5 Sudeste 8 Sudeste 0 -- -- 88
2021-03-02 00:00:00 9.2 4 Sudeste 14 Este 0 -- -- 85
2021-03-01 23:00:00 9.7 11 Este 13 Nordeste 0 -- -- 85
2021-03-01 22:00:00 9.1 9 Este 11 Nordeste 0 -- -- 88
2021-03-01 21:00:00 9.9 8 Nordeste 12 Nordeste 0 -- -- 84
2021-03-01 20:00:00 9.8 8 Nordeste 14 Nordeste 0 -- -- 85
2021-03-01 19:00:00 11.2 13 Nordeste 15 Nordeste 0 -- -- 81
2021-03-01 18:00:00 12.9 10 Nordeste 19 Nordeste 0 -- -- 77
2021-03-01 17:00:00 14.8 11 Nordeste 23 Este 0 -- -- 69
2021-03-01 16:00:00 14.7 13 Este 22 Este 0 -- -- 69
2021-03-01 15:00:00 14 12 Este 24 Este 0 -- -- 71
2021-03-01 14:00:00 13.6 14 Este 20 Este 0 -- -- 78
2021-03-01 13:00:00 12.6 12 Nordeste 17 Nordeste 0 -- -- 82
2021-03-01 12:00:00 11.7 6 Este 15 Este 0 -- -- 80
2021-03-01 11:00:00 10.3 10 Este 18 Este 0 -- -- 87
2021-03-01 10:00:00 8.5 10 Este 14 Nordeste 0 -- -- 93
2021-03-01 09:00:00 8.3 11 Este 14 Sudeste 0 -- -- 88
2021-03-01 08:00:00 7.6 12 Este 14 Sudeste 0 -- -- 87
2021-03-01 07:00:00 7.7 7 Este 11 Este 0 -- -- 88
2021-03-01 06:00:00 8 9 Este 13 Este 0 -- -- 86
2021-03-01 05:00:00 8.2 13 Este 18 Este 0 -- -- 84
2021-03-01 04:00:00 9 10 Este 18 Sudeste 0 -- -- 82
2021-03-01 03:00:00 8.8 14 Sudeste 16 Sudeste 0 -- -- 84
2021-03-01 02:00:00 8.6 11 Sudeste 15 Sudeste 0 -- -- 82
2021-03-01 01:00:00 8.6 12 Sudeste 14 Sudeste 0 -- -- 82
2021-03-01 00:00:00 10.1 8 Este 10 Sudeste 0 -- -- 75
2021-02-28 23:00:00 10.1 9 Este 14 Sudeste 0 -- -- 74
2021-02-28 22:00:00 9.8 10 Sudeste 12 Sudeste 0 -- -- 75
2021-02-28 21:00:00 10.3 6 Sudeste 12 Este 0 -- -- 78
2021-02-28 20:00:00 10.6 9 Este 11 Este 0 -- -- 78
2021-02-28 19:00:00 11.9 8 Sudeste 14 Sudeste 0 -- -- 77
2021-02-28 18:00:00 12.9 8 Sudeste 12 Sudeste 0 -- -- 73
2021-02-28 17:00:00 13.3 10 Sudeste 18 Sudeste 0 -- -- 68
2021-02-28 16:00:00 13.4 14 Sudeste 23 Este 0 -- -- 72
2021-02-28 15:00:00 14.5 16 Este 33 Sudeste 0 -- -- 65
2021-02-28 14:00:00 14.4 22 Sudeste 31 Sudeste 0 -- -- 66
2021-02-28 13:00:00 14 19 Sudeste 29 Sudeste 0 -- -- 70
2021-02-28 12:00:00 12.8 20 Sudeste 30 Sudeste 0 -- -- 70
2021-02-28 11:00:00 11.5 18 Sudeste 29 Sudeste 0 -- -- 81
2021-02-28 10:00:00 9.5 13 Este 20 Este 0 -- -- 86
2021-02-28 09:00:00 7.5 15 Este 26 Este 0 -- -- 90
2021-02-28 08:00:00 7.2 20 Este 26 Este 0 -- -- 90
2021-02-28 07:00:00 7 14 Este 26 Este 0 -- -- 92
2021-02-28 06:00:00 6.7 14 Este 24 Este 0 -- -- 93
2021-02-28 05:00:00 8.3 20 Sudeste 24 Sudeste 0 -- -- 90
2021-02-28 04:00:00 8.2 18 Sudeste 20 Sudeste 0 -- -- 93
2021-02-28 03:00:00 8.7 15 Sudeste 18 Sudeste 0 -- -- 93
2021-02-28 02:00:00 8.8 16 Sudeste 18 Sudeste 0 -- -- 93
2021-02-28 01:00:00 8.9 7 Nordeste 10 Sudeste 0 -- -- 90
2021-02-28 00:00:00 10.1 8 Sudeste 9 Sudeste 0 -- -- 88
2021-02-27 23:00:00 10.5 6 Sudeste 12 Este 0 -- -- 87
2021-02-27 22:00:00 11 5 Este 15 Este 0 -- -- 85
2021-02-27 21:00:00 11.6 6 Este 17 Sudeste 0 -- -- 81
2021-02-27 20:00:00 12.2 12 Este 17 Este 0 -- -- 79
2021-02-27 19:00:00 12.2 8 Nordeste 12 Nordeste 0 -- -- 82
2021-02-27 18:00:00 13.7 10 Nordeste 16 Nordeste 0 -- -- 76
2021-02-27 17:00:00 15 7 Nordeste 13 Nordeste 0 -- -- 70
2021-02-27 16:00:00 15.6 5 Nordeste 12 Nordeste 0 -- -- 66
2021-02-27 15:00:00 15.6 6 Este 12 Este 0 -- -- 64
2021-02-27 14:00:00 15.1 7 Sudeste 17 Este 0 -- -- 68
2021-02-27 13:00:00 13.6 10 Este 20 Este 0 -- -- 75
2021-02-27 12:00:00 12.6 15 Este 25 Este 0 -- -- 77
2021-02-27 11:00:00 12.1 13 Este 17 Este 0 -- -- 81
2021-02-27 10:00:00 10 12 Este 17 Este 0 -- -- 88
2021-02-27 09:00:00 7.9 13 Este 18 Este 0 -- -- 91
2021-02-27 08:00:00 7.7 14 Sudeste 17 Este 0 -- -- 91
2021-02-27 07:00:00 6 10 Este 13 Este 0 -- -- 91
2021-02-27 06:00:00 7.6 6 Este 10 Este 0 -- -- 94
2021-02-27 05:00:00 8.1 7 Este 8 Nordeste 0 -- -- 90
2021-02-27 04:00:00 9 0 Calma 2 Este 0 -- -- 88
2021-02-27 03:00:00 8.9 0 Calma 5 Sudeste 0 -- -- 91
2021-02-27 02:00:00 8.9 2 Sur 3 Sur 0 -- -- 91
2021-02-27 01:00:00 9 2 Sudoeste 5 Noroeste 0 -- -- 89
2021-02-27 00:00:00 9.4 0 Calma 4 Sudoeste 0 -- -- 87
2021-02-26 23:00:00 9.9 3 Oeste 4 Oeste 0 -- -- 86
2021-02-26 22:00:00 10.3 4 Noroeste 10 Noroeste 0 -- -- 81
2021-02-26 21:00:00 11.2 6 Norte 9 Norte 0 -- -- 78
2021-02-26 20:00:00 10.9 7 Norte 12 Nordeste 0 -- -- 83
2021-02-26 19:00:00 11.9 12 Nordeste 14 Nordeste 0 -- -- 82
2021-02-26 18:00:00 13.8 11 Este 18 Este 0 -- -- 73
2021-02-26 17:00:00 14.8 14 Este 21 Este 0 -- -- 64
2021-02-26 16:00:00 15.1 11 Este 18 Este 0 -- -- 63
2021-02-26 15:00:00 14.8 11 Este 20 Este 0 -- -- 67
2021-02-26 14:00:00 14.9 15 Este 23 Sudeste 0 -- -- 61
2021-02-26 13:00:00 14.7 17 Sudeste 27 Sudeste 0 -- -- 63
2021-02-26 12:00:00 13 11 Este 16 Este 0 -- -- 77
2021-02-26 11:00:00 12.5 8 Este 14 Sudeste 0 -- -- 80
2021-02-26 10:00:00 10.4 8 Este 13 Este 0 -- -- 88
2021-02-26 09:00:00 9.4 13 Este 20 Este 0 -- -- 89
2021-02-26 08:00:00 9.6 16 Este 22 Sudeste 0 -- -- 86
2021-02-26 07:00:00 9.3 18 Sudeste 23 Este 0 -- -- 88
2021-02-26 06:00:00 9.1 17 Este 24 Este 0 -- -- 89
2021-02-26 05:00:00 8.8 17 Este 23 Este 0 -- -- 88
2021-02-26 04:00:00 9.5 16 Este 23 Este 0 -- -- 86
2021-02-26 03:00:00 9.3 14 Este 19 Este 0 -- -- 86
2021-02-26 02:00:00 9.4 14 Este 20 Este 0 -- -- 86
2021-02-26 01:00:00 9.7 16 Este 24 Este 0 -- -- 85
2021-02-26 00:00:00 10.5 18 Sudeste 32 Sudeste 0 -- -- 80
2021-02-25 23:00:00 10.2 17 Este 26 Este 0 -- -- 88
2021-02-25 22:00:00 10 15 Este 22 Este 0 -- -- 88
2021-02-25 21:00:00 10.6 14 Este 21 Sudeste 0 -- -- 86
2021-02-25 20:00:00 10.9 13 Este 21 Este 0 -- -- 84
2021-02-25 19:00:00 11.8 12 Este 21 Este 0 -- -- 82
2021-02-25 18:00:00 12.5 13 Este 22 Sudeste 0 -- -- 78
2021-02-25 17:00:00 13.3 17 Sudeste 24 Sudeste 0 -- -- 76
2021-02-25 16:00:00 13.8 16 Sudeste 22 Sudeste 0 -- -- 73
2021-02-25 15:00:00 13.6 15 Sudeste 25 Sudeste 0 -- -- 71
2021-02-25 14:00:00 14.2 14 Sudeste 24 Sudeste 0 -- -- 71
2021-02-25 13:00:00 13.5 17 Sudeste 27 Sudeste 0 -- -- 74
2021-02-25 12:00:00 11.8 19 Sudeste 27 Este 0 -- -- 83
2021-02-25 11:00:00 10.2 14 Este 24 Sudeste 0 -- -- 86
2021-02-25 10:00:00 9.2 18 Sudeste 24 Sudeste 0 -- -- 89
2021-02-25 09:00:00 7.9 15 Sudeste 22 Este 0 -- -- 92
2021-02-25 08:00:00 7.1 17 Este 22 Este 0 -- -- 92
2021-02-25 07:00:00 7 15 Este 19 Sudeste 0 -- -- 92
2021-02-25 06:00:00 7.1 17 Este 23 Este 0 -- -- 91
2021-02-25 05:00:00 7.3 19 Este 23 Este 0 -- -- 91
2021-02-25 04:00:00 7.4 15 Este 30 Este 0 -- -- 91
2021-02-25 03:00:00 7.9 19 Este 27 Este 0 -- -- 89
2021-02-25 02:00:00 8.4 19 Este 34 Sudeste 0 -- -- 85
2021-02-25 01:00:00 8.5 25 Sudeste 32 Sudeste 0 -- -- 83
2021-02-25 00:00:00 8.3 20 Sudeste 27 Sudeste 0 -- -- 82
2021-02-24 23:00:00 8.6 13 Sudeste 24 Sudeste 0 -- -- 84
2021-02-24 22:00:00 9.4 17 Este 23 Sudeste 0 -- -- 82
2021-02-24 21:00:00 9.9 18 Sudeste 26 Sudeste 0 -- -- 82
2021-02-24 20:00:00 10.9 18 Sudeste 22 Sudeste 0 -- -- 79
2021-02-24 19:00:00 12.2 14 Sudeste 27 Sudeste 0 -- -- 76
2021-02-24 18:00:00 14.3 23 Sudeste 34 Sudeste 0 -- -- 69
2021-02-24 17:00:00 15.2 26 Sudeste 42 Sudeste 0 -- -- 68
2021-02-24 16:00:00 14.6 28 Sudeste 40 Sudeste 0 -- -- 66
2021-02-24 15:00:00 15 26 Sudeste 44 Sudeste 0 -- -- 69
2021-02-24 14:00:00 15 31 Sudeste 42 Sudeste 0 -- -- 67
2021-02-24 13:00:00 14.3 34 Sudeste 48 Sudeste 0 -- -- 67
2021-02-24 12:00:00 13.4 37 Sudeste 52 Sudeste 0 -- -- 68
2021-02-24 11:00:00 11.7 31 Sudeste 41 Sudeste 0 -- -- 74
2021-02-24 10:00:00 8.9 18 Este 28 Sudeste 0 -- -- 83
2021-02-24 09:00:00 7.2 21 Este 40 Este 0 -- -- 88
2021-02-24 08:00:00 6.5 21 Este 39 Este 0 -- -- 90
2021-02-24 07:00:00 6.8 28 Este 39 Sudeste 0 -- -- 90
2021-02-24 06:00:00 6.3 28 Este 38 Este 0 -- -- 90
2021-02-24 05:00:00 4.6 19 Este 27 Este 0 -- -- 88
2021-02-24 04:00:00 3.8 18 Este 28 Este 0 -- -- 87
2021-02-24 03:00:00 5.6 21 Este 27 Este 0 -- -- 79
2021-02-24 02:00:00 7.3 15 Este 21 Este 0 -- -- 73
2021-02-24 01:00:00 7 15 Sudeste 22 Este 0 -- -- 74
2021-02-24 00:00:00 7.5 14 Este 24 Este 0 -- -- 71
2021-02-23 23:00:00 7.9 19 Este 22 Este 0 -- -- 68
2021-02-23 22:00:00 9.3 13 Este 21 Sudeste 0 -- -- 59
2021-02-23 21:00:00 9.4 21 Sudeste 23 Sudeste 0 -- -- 60
2021-02-23 20:00:00 9.6 16 Sudeste 21 Sudeste 0 -- -- 63
2021-02-23 19:00:00 12 15 Sudeste 27 Sudeste 0 -- -- 64
2021-02-23 18:00:00 14.2 19 Sudeste 29 Sudeste 0 -- -- 53
2021-02-23 17:00:00 14.6 19 Sudeste 31 Sudeste 0 -- -- 52
2021-02-23 16:00:00 14.9 21 Sudeste 31 Sudeste 0 -- -- 51
2021-02-23 15:00:00 14.6 19 Sudeste 33 Este 0 -- -- 50
2021-02-23 14:00:00 14 19 Sudeste 32 Sudeste 0 -- -- 52
2021-02-23 13:00:00 13.1 23 Sudeste 34 Sudeste 0 -- -- 51
2021-02-23 12:00:00 11.8 15 Este 26 Este 0 -- -- 61
2021-02-23 11:00:00 10.4 13 Este 24 Sudeste 0 -- -- 75
2021-02-23 10:00:00 8.9 14 Este 24 Sudeste 0 -- -- 82
2021-02-23 09:00:00 6.7 15 Sudeste 27 Sudeste 0 -- -- 85
2021-02-23 08:00:00 6.7 19 Este 27 Este 0 -- -- 83
2021-02-23 07:00:00 6.9 19 Este 24 Este 0 -- -- 85
2021-02-23 06:00:00 6.7 13 Este 16 Este 0 -- -- 86
2021-02-23 05:00:00 6.6 6 Sudeste 8 Sudeste 0 -- -- 85
2021-02-23 04:00:00 6.8 5 Sudeste 9 Sudeste 0 -- -- 85
2021-02-23 03:00:00 6.7 7 Este 12 Este 0 -- -- 83
2021-02-23 02:00:00 6.1 9 Sudeste 14 Este 0 -- -- 86
2021-02-23 01:00:00 7.1 4 Sudeste 7 Este 0 -- -- 78
2021-02-23 00:00:00 7.7 4 Sudeste 9 Sudeste 0 -- -- 79
2021-02-22 23:00:00 7.3 6 Sudeste 11 Sudeste 0 -- -- 80
2021-02-22 22:00:00 7.4 8 Sudeste 12 Sudeste 0 -- -- 78
2021-02-22 21:00:00 8.7 2 Este 6 Norte 0 -- -- 72
2021-02-22 20:00:00 8.5 6 Norte 10 Oeste 0 -- -- 72
2021-02-22 19:00:00 10.1 6 Noroeste 10 Oeste 0 -- -- 72
2021-02-22 18:00:00 10.7 8 Oeste 18 Oeste 0 -- -- 67
2021-02-22 17:00:00 12.2 11 Noroeste 24 Noroeste 0 -- -- 57
2021-02-22 16:00:00 11.8 15 Oeste 27 Oeste 0 -- -- 60
2021-02-22 15:00:00 11.5 18 Oeste 27 Oeste 0 -- -- 60
2021-02-22 14:00:00 11 19 Oeste 28 Oeste 0 -- -- 63
2021-02-22 13:00:00 10.3 16 Oeste 31 Oeste 0 -- -- 70
2021-02-22 12:00:00 8.7 8 Oeste 15 Oeste 0 -- -- 78
2021-02-22 11:00:00 6.9 7 Noroeste 12 Oeste 0 -- -- 88
2021-02-22 10:00:00 5.3 6 Sudoeste 9 Sudoeste 0 -- -- 97
2021-02-22 09:00:00 3.4 4 Sur 5 Sur 0 -- -- 98
2021-02-22 08:00:00 2.1 2 Sudoeste 9 Sudoeste 0 -- -- 98
2021-02-22 07:00:00 2.2 9 Sudoeste 10 Sudoeste 0 -- -- 98
2021-02-22 06:00:00 2.7 9 Oeste 10 Oeste 0 -- -- 97
2021-02-22 05:00:00 2.6 9 Oeste 17 Oeste 0 -- -- 97
2021-02-22 04:00:00 3.1 14 Oeste 20 Oeste 0 -- -- 97
2021-02-22 03:00:00 2.7 13 Oeste 16 Oeste 0 -- -- 96
2021-02-22 02:00:00 3.8 11 Oeste 16 Oeste 0 -- -- 95
2021-02-22 01:00:00 4 12 Oeste 23 Oeste 0 -- -- 95
2021-02-22 00:00:00 4.4 17 Oeste 28 Oeste 0 -- -- 93
2021-02-21 23:00:00 5 21 Oeste 27 Oeste 0 -- -- 92
2021-02-21 22:00:00 5.4 17 Oeste 24 Oeste 0 -- -- 89
2021-02-21 21:00:00 6.1 16 Oeste 24 Oeste 0 -- -- 88
2021-02-21 20:00:00 6.7 19 Oeste 28 Oeste 0 -- -- 83
2021-02-21 19:00:00 8 24 Oeste 37 Noroeste 0 -- -- 78
2021-02-21 18:00:00 8.8 27 Oeste 42 Oeste 0 -- -- 75
2021-02-21 17:00:00 8.1 32 Oeste 44 Oeste 0 -- -- 79
2021-02-21 16:00:00 7.8 24 Oeste 38 Oeste 0 -- -- 87
2021-02-21 15:00:00 6.6 30 Oeste 37 Oeste 0 -- -- 90
2021-02-21 14:00:00 7 19 Oeste 26 Oeste 0 -- -- 88
2021-02-21 13:00:00 6.7 3 Sudoeste 14 Oeste 0.6 -- -- 92
2021-02-21 12:00:00 5.5 12 Oeste 32 Noroeste 1.6 -- -- 95
2021-02-21 11:00:00 5.6 20 Noroeste 31 Noroeste 2.6 -- -- 97
2021-02-21 10:00:00 6.2 17 Oeste 30 Oeste 3.4 -- -- 96
2021-02-21 09:00:00 6.6 21 Noroeste 33 Oeste 1.2 -- -- 95
2021-02-21 08:00:00 8.7 10 Sur 44 Sur 0.8 -- -- 94
2021-02-21 07:00:00 9.1 32 Sur 63 Sur 1.6 -- -- 92
2021-02-21 06:00:00 9.9 34 Sur 88 Sur 0 -- -- 84
2021-02-21 05:00:00 10.8 54 Sur 90 Sur 0 -- -- 75
2021-02-21 04:00:00 11.5 58 Sur 79 Sur 0 -- -- 71
2021-02-21 03:00:00 11.7 61 Sur 80 Sur 0 -- -- 64
2021-02-21 02:00:00 11.8 36 Sur 60 Sur 0 -- -- 56
2021-02-21 01:00:00 10.4 30 Sudeste 46 Sudeste 0 -- -- 70
2021-02-21 00:00:00 10.4 27 Sudeste 37 Sudeste 0 -- -- 75
2021-02-20 23:00:00 10.9 23 Sudeste 42 Sudeste 0 -- -- 76
2021-02-20 22:00:00 11.9 31 Sudeste 47 Este 0 -- -- 73
2021-02-20 21:00:00 12 35 Sudeste 48 Sudeste 0 -- -- 73
2021-02-20 20:00:00 11.8 38 Sudeste 45 Sudeste 0 -- -- 70
2021-02-20 19:00:00 12.5 32 Sudeste 53 Sur 0 -- -- 67
2021-02-20 18:00:00 13.6 36 Sur 54 Sur 0 -- -- 57
2021-02-20 17:00:00 14.8 40 Sur 57 Sur 0 -- -- 53
2021-02-20 16:00:00 14.3 37 Sur 57 Sudeste 0 -- -- 62
2021-02-20 15:00:00 13 41 Sur 59 Sur 0 -- -- 65
2021-02-20 14:00:00 12.7 39 Sur 60 Sur 0 -- -- 60
2021-02-20 13:00:00 12.5 39 Sur 62 Sur 0 -- -- 60
2021-02-20 12:00:00 10.9 44 Sur 64 Sur 0 -- -- 72
2021-02-20 11:00:00 10.8 46 Sur 62 Sur 0 -- -- 75
2021-02-20 10:00:00 9.9 26 Sur 46 Sur 0 -- -- 78
2021-02-20 09:00:00 9.2 27 Sur 53 Sur 0 -- -- 84
2021-02-20 08:00:00 8.9 33 Sudeste 47 Sudeste 0 -- -- 86
2021-02-20 07:00:00 9 24 Sudeste 46 Sur 0 -- -- 86
2021-02-20 06:00:00 9.1 32 Sur 60 Sudeste 0 -- -- 87
2021-02-20 05:00:00 9.2 40 Sudeste 54 Sur 0 -- -- 89
2021-02-20 04:00:00 8.7 24 Sudeste 48 Sudeste 0 -- -- 89
2021-02-20 03:00:00 9.1 39 Sur 50 Sur 0 -- -- 87
2021-02-20 02:00:00 9 25 Sudeste 42 Sur 0 -- -- 89
2021-02-20 01:00:00 9 25 Sur 32 Sur 0 -- -- 87
2021-02-20 00:00:00 9.4 21 Sudeste 42 Sudeste 0 -- -- 88
2021-02-19 23:00:00 10.2 30 Sudeste 39 Sur 0 -- -- 90
2021-02-19 22:00:00 9.5 13 Sudeste 27 Sudeste 0 -- -- 87
2021-02-19 21:00:00 9.1 20 Sudeste 25 Sudeste 0 -- -- 88
2021-02-19 20:00:00 10 16 Sudeste 21 Este 0 -- -- 85
2021-02-19 19:00:00 11.5 7 Sudoeste 17 Sudoeste 0 -- -- 76
2021-02-19 18:00:00 13.2 9 Sur 23 Sur 0 -- -- 72
2021-02-19 17:00:00 14.8 17 Sur 28 Sur 0 -- -- 63
2021-02-19 16:00:00 15.8 22 Sudoeste 37 Sur 0 -- -- 58
2021-02-19 15:00:00 16.5 24 Sudoeste 37 Sur 0 -- -- 55
2021-02-19 14:00:00 16.2 25 Sur 38 Sur 0 -- -- 59
2021-02-19 13:00:00 15.7 24 Sur 37 Sur 0 -- -- 60
2021-02-19 12:00:00 14.3 21 Sur 31 Sur 0 -- -- 64
2021-02-19 11:00:00 12 16 Sudeste 27 Sudeste 0 -- -- 80
2021-02-19 10:00:00 10 19 Sudeste 25 Sudeste 0 -- -- 80
2021-02-19 09:00:00 6.7 19 Este 27 Sudeste 0 -- -- 94
2021-02-19 08:00:00 6.1 18 Este 26 Este 0 -- -- 96
2021-02-19 07:00:00 6.1 18 Este 25 Este 0 -- -- 96
2021-02-19 06:00:00 6.1 16 Este 21 Este 0 -- -- 93
2021-02-19 05:00:00 6.2 16 Este 23 Sudeste 0 -- -- 90
2021-02-19 04:00:00 7.2 18 Sudeste 22 Sudeste 0 -- -- 86
2021-02-19 03:00:00 7.5 18 Sudeste 22 Sudeste 0 -- -- 84
2021-02-19 02:00:00 7.9 12 Sudeste 15 Este 0 -- -- 84
2021-02-19 01:00:00 9.6 13 Sudeste 19 Sudeste 0 -- -- 78
2021-02-19 00:00:00 9.4 16 Sudeste 19 Sudeste 0 -- -- 86
2021-02-18 23:00:00 9.9 14 Sudeste 21 Sudeste 0 -- -- 88
2021-02-18 22:00:00 10.2 14 Sudeste 16 Sudeste 0 -- -- 91
2021-02-18 21:00:00 10.8 15 Sudeste 19 Sudeste 0 -- -- 88
2021-02-18 20:00:00 12.3 9 Sudeste 13 Sudeste 0 -- -- 80
2021-02-18 19:00:00 14.5 4 Noroeste 10 Noroeste 0 -- -- 51
2021-02-18 18:00:00 16.2 6 Noroeste 12 Noroeste 0 -- -- 58
2021-02-18 17:00:00 17 10 Noroeste 16 Noroeste 0 -- -- 48
2021-02-18 16:00:00 17.6 8 Oeste 18 Oeste 0 -- -- 42
2021-02-18 15:00:00 17.1 14 Noroeste 24 Oeste 0 -- -- 44
2021-02-18 14:00:00 16.9 16 Oeste 24 Oeste 0 -- -- 44
2021-02-18 13:00:00 16.2 10 Oeste 18 Sudoeste 0 -- -- 49
2021-02-18 12:00:00 15.2 9 Oeste 15 Oeste 0 -- -- 46
2021-02-18 11:00:00 13.6 4 Sur 6 Sudoeste 0 -- -- 49
2021-02-18 10:00:00 12.6 0 Calma 5 Sudeste 0 -- -- 58
2021-02-18 09:00:00 10.1 4 Sur 7 Sudeste 0 -- -- 60
2021-02-18 08:00:00 9.7 4 Sur 6 Sudoeste 0 -- -- 55
2021-02-18 07:00:00 10.4 5 Sudoeste 8 Sudoeste 0 -- -- 46
2021-02-18 06:00:00 10.6 3 Sur 6 Sudoeste 0 -- -- 48
2021-02-18 05:00:00 10.8 4 Sur 6 Sur 0 -- -- 62
2021-02-18 04:00:00 10.1 5 Sur 6 Sur 0 -- -- 66
2021-02-18 03:00:00 10.2 4 Sur 6 Sur 0 -- -- 64
2021-02-18 02:00:00 10.8 5 Sur 9 Sudoeste 0 -- -- 60
2021-02-18 01:00:00 11.2 8 Sudoeste 9 Sudoeste 0 -- -- 58
2021-02-18 00:00:00 11.3 5 Sur 6 Sudoeste 0 -- -- 69
2021-02-17 23:00:00 12.2 -- -- -- -- 0 -- -- 67
2021-02-17 22:00:00 12.8 6 Oeste 8 Oeste 0 -- -- 66
2021-02-17 21:00:00 13.7 5 Oeste 7 Oeste 0 -- -- 56
2021-02-17 20:00:00 14.7 3 Sudoeste 10 Oeste 0 -- -- 56
2021-02-17 19:00:00 16.4 7 Oeste 15 Oeste 0 -- -- 52
2021-02-17 18:00:00 18.4 13 Oeste 21 Oeste 0 -- -- 50
2021-02-17 17:00:00 20.3 6 Oeste 13 Sudoeste 0 -- -- 48
2021-02-17 16:00:00 19.9 10 Sudoeste 15 Oeste 0 -- -- 41
2021-02-17 15:00:00 19.6 7 Sudoeste 16 Sudoeste 0 -- -- 47
2021-02-17 14:00:00 19.1 8 Oeste 14 Oeste 0 -- -- 46
2021-02-17 13:00:00 17.7 2 Noroeste 14 Este 0 -- -- 54
2021-02-17 12:00:00 14.4 12 Este 16 Este 0 -- -- 77
2021-02-17 11:00:00 13.6 8 Este 14 Este 0 -- -- 69
2021-02-17 10:00:00 12.3 13 Sudeste 16 Sudeste 0 -- -- 67
2021-02-17 09:00:00 9.6 9 Este 13 Este 0 -- -- 77
2021-02-17 08:00:00 10.5 9 Sudeste 13 Sudeste 0 -- -- 68
2021-02-17 07:00:00 10.5 10 Este 19 Este 0 -- -- 76
2021-02-17 06:00:00 10.5 16 Este 20 Este 0 -- -- 79
2021-02-17 05:00:00 10.3 15 Este 18 Este 0 -- -- 82
2021-02-17 04:00:00 9.8 9 Este 10 Este 0 -- -- 85
2021-02-17 03:00:00 9.2 7 Sudeste 8 Sudeste 0 -- -- 87
2021-02-17 02:00:00 9.1 4 Sudeste 4 Sudeste 0 -- -- 89
2021-02-17 01:00:00 9.8 4 Oeste 5 Oeste 0 -- -- 88
2021-02-17 00:00:00 10.2 3 Oeste 5 Sudoeste 0 -- -- 86
2021-02-16 23:00:00 10.9 2 Sudoeste 4 Oeste 0 -- -- 85
2021-02-16 22:00:00 11.3 3 Oeste 9 Noroeste 0 -- -- 84
2021-02-16 21:00:00 12.6 6 Noroeste 7 Oeste 0 -- -- 76
2021-02-16 20:00:00 12.8 4 Norte 10 Noroeste 0 -- -- 77
2021-02-16 19:00:00 14.5 6 Noroeste 12 Oeste 0 -- -- 71
2021-02-16 18:00:00 17.5 10 Oeste 16 Oeste 0 -- -- 58
2021-02-16 17:00:00 18.2 13 Oeste 18 Oeste 0 -- -- 54
2021-02-16 16:00:00 18.3 11 Oeste 19 Oeste 0 -- -- 54
2021-02-16 15:00:00 18.1 11 Oeste 19 Oeste 0 -- -- 55
2021-02-16 14:00:00 17.5 12 Oeste 20 Oeste 0 -- -- 54
2021-02-16 13:00:00 16.2 5 Oeste 11 Noroeste 0 -- -- 57
2021-02-16 12:00:00 14.2 10 Nordeste 15 Este 0 -- -- 70
2021-02-16 11:00:00 11.9 12 Este 19 Este 0 -- -- 73
2021-02-16 10:00:00 10.5 16 Sudeste 21 Este 0 -- -- 69
2021-02-16 09:00:00 7.8 10 Este 25 Este 0 -- -- 71
2021-02-16 08:00:00 6 19 Este 24 Este 0 -- -- 81
2021-02-16 07:00:00 6.6 16 Este 23 Este 0 -- -- 75
2021-02-16 06:00:00 7.6 16 Este 26 Este 0 -- -- 72
2021-02-16 05:00:00 7.3 20 Este 29 Este 0 -- -- 75
2021-02-16 04:00:00 7.6 22 Este 31 Este 0 -- -- 76
2021-02-16 03:00:00 7.2 24 Este 32 Este 0 -- -- 78
2021-02-16 02:00:00 7.7 25 Este 34 Este 0 -- -- 76
2021-02-16 01:00:00 8 23 Este 36 Este 0 -- -- 76
2021-02-16 00:00:00 9 24 Este 40 Sudeste 0 -- -- 72
2021-02-15 23:00:00 10.1 34 Sudeste 43 Sudeste 0 -- -- 68
2021-02-15 22:00:00 9.5 25 Este 35 Sudeste 0 -- -- 72
2021-02-15 21:00:00 10.8 23 Sudeste 34 Sudeste 0 -- -- 69
2021-02-15 20:00:00 11.7 27 Sudeste 36 Sudeste 0 -- -- 67
2021-02-15 19:00:00 12.8 22 Este 30 Sudeste 0 -- -- 69
2021-02-15 18:00:00 15.1 24 Sudeste 42 Sudeste 0 -- -- 61
2021-02-15 17:00:00 15.9 33 Sudeste 42 Sudeste 0 -- -- 63
2021-02-15 16:00:00 16.6 25 Sudeste 36 Sudeste 0 -- -- 61
2021-02-15 15:00:00 16.8 26 Sudeste 34 Sudeste 0 -- -- 62
2021-02-15 14:00:00 16 24 Sudeste 36 Sudeste 0 -- -- 61
2021-02-15 13:00:00 15.1 26 Sudeste 37 Sudeste 0 -- -- 64
2021-02-15 12:00:00 13.4 30 Sudeste 46 Este 0 -- -- 65
2021-02-15 11:00:00 11.6 34 Sudeste 46 Sudeste 0 -- -- 67
2021-02-15 10:00:00 10 34 Sudeste 47 Sudeste 0 -- -- 72
2021-02-15 09:00:00 8.4 34 Sudeste 50 Sudeste 0 -- -- 76
2021-02-15 08:00:00 8.1 36 Sudeste 46 Este 0 -- -- 75
2021-02-15 07:00:00 8.2 35 Este 46 Este 0 -- -- 73
2021-02-15 06:00:00 8.2 33 Este 45 Este 0 -- -- 73
2021-02-15 05:00:00 8.2 29 Este 38 Sudeste 0 -- -- 74
2021-02-15 04:00:00 8.1 28 Sudeste 37 Este 0 -- -- 75
2021-02-15 03:00:00 7.7 26 Este 36 Este 0 -- -- 79
2021-02-15 02:00:00 7.8 23 Este 34 Este 0 -- -- 79
2021-02-15 01:00:00 8.5 24 Este 31 Este 0 -- -- 73
2021-02-15 00:00:00 9.2 19 Este 31 Este 0 -- -- 69
2021-02-14 23:00:00 10.2 24 Este 30 Este 0 -- -- 67
2021-02-14 22:00:00 11.6 27 Sudeste 35 Sudeste 0 -- -- 62
2021-02-14 21:00:00 11.5 24 Sudeste 27 Sudeste 0 -- -- 67
2021-02-14 20:00:00 12.5 16 Sudeste 17 Sudeste 0 -- -- 63
2021-02-14 19:00:00 14.5 12 Sudeste 19 Sudeste 0 -- -- 62
2021-02-14 18:00:00 17.7 12 Sudeste 19 Sudeste 0 -- -- 51
2021-02-14 17:00:00 18.4 12 Este 19 Este 0 -- -- 49
2021-02-14 16:00:00 18.7 11 Este 19 Este 0 -- -- 46
2021-02-14 15:00:00 18.3 10 Este 22 Este 0 -- -- 48
2021-02-14 14:00:00 18.1 12 Sudeste 23 Este 0 -- -- 52
2021-02-14 13:00:00 16.7 14 Este 24 Este 0 -- -- 56
2021-02-14 12:00:00 15.6 13 Este 23 Este 0 -- -- 61
2021-02-14 11:00:00 14 17 Este 27 Este 0 -- -- 61
2021-02-14 10:00:00 12.1 18 Este 26 Este 0 -- -- 65
2021-02-14 09:00:00 10.7 18 Este 26 Este 0 -- -- 58
2021-02-14 08:00:00 10.4 19 Este 25 Este 0 -- -- 56
2021-02-14 07:00:00 9.8 19 Este 24 Este 0 -- -- 59
2021-02-14 06:00:00 9 23 Este 26 Este 0 -- -- 62
2021-02-14 05:00:00 10.4 16 Este 23 Este 0 -- -- 55
2021-02-14 04:00:00 9.4 20 Este 22 Este 0 -- -- 60
2021-02-14 03:00:00 10.4 15 Este 17 Este 0 -- -- 52
2021-02-14 02:00:00 10.2 9 Este 13 Este 0 -- -- 61
2021-02-14 01:00:00 9.6 11 Este 14 Este 0 -- -- 63
2021-02-14 00:00:00 8.7 10 Nordeste 13 Nordeste 0 -- -- 73
2021-02-13 23:00:00 8.4 10 Nordeste 11 Nordeste 0 -- -- 79
2021-02-13 22:00:00 9.2 3 Norte 13 Nordeste 0 -- -- 73
2021-02-13 21:00:00 9.1 12 Norte 15 Norte 0 -- -- 74
2021-02-13 20:00:00 9.9 11 Norte 14 Norte 0 -- -- 67
2021-02-13 19:00:00 13.4 7 Norte 8 Norte 0 -- -- 55
2021-02-13 18:00:00 16.5 0 Calma 5 Norte 0 -- -- 45
2021-02-13 17:00:00 16.4 3 Norte 14 Norte 0 -- -- 46
2021-02-13 16:00:00 16.1 6 Noroeste 14 Oeste 0 -- -- 49
2021-02-13 15:00:00 15.5 6 Noroeste 12 Noroeste 0 -- -- 48
2021-02-13 14:00:00 14.5 9 Noroeste 17 Noroeste 0 -- -- 62
2021-02-13 13:00:00 13.6 4 Norte 10 Oeste 0 -- -- 61
2021-02-13 08:00:00 -- -- -- -- -- -- -- -- --
2021-02-13 07:00:00 -- -- -- -- -- -- -- -- --
2021-02-13 06:00:00 -- -- -- -- -- -- -- -- --
2021-02-13 05:00:00 7 3 Sur 5 Sudoeste 0 -- -- 90
2021-02-13 04:00:00 7.4 4 Sudoeste 5 Sudoeste 0 -- -- 89
2021-02-13 03:00:00 7.9 3 Oeste 5 Oeste 0 -- -- 88
2021-02-13 02:00:00 7.9 4 Oeste 6 Noroeste 0 -- -- 88
2021-02-13 01:00:00 7.9 0 Calma 5 Oeste 0 -- -- 87
2021-02-13 00:00:00 8.5 5 Oeste 7 Oeste 0 -- -- 84
2021-02-12 23:00:00 7.9 4 Sudeste 10 Noroeste 0 -- -- 87
2021-02-12 22:00:00 7.7 10 Noroeste 18 Noroeste 0 -- -- 87
2021-02-12 21:00:00 8.9 16 Noroeste 19 Norte 0 -- -- 84
2021-02-12 20:00:00 9.5 15 Norte 19 Noroeste 0 -- -- 82
2021-02-12 19:00:00 10.7 14 Norte 18 Norte 0 -- -- 80
2021-02-12 18:00:00 13.1 15 Norte 23 Noroeste 0 -- -- 70
2021-02-12 17:00:00 14.1 14 Oeste 26 Oeste 0 -- -- 65
2021-02-12 16:00:00 13.9 17 Oeste 33 Oeste 0 -- -- 66
2021-02-12 15:00:00 13.1 18 Oeste 27 Noroeste 0 -- -- 70
2021-02-12 14:00:00 12.3 15 Noroeste 28 Noroeste 0 -- -- 77
2021-02-12 13:00:00 11.5 22 Noroeste 33 Oeste 0 -- -- 80
2021-02-12 12:00:00 10.9 19 Oeste 27 Noroeste 0 -- -- 84
2021-02-12 11:00:00 9.8 22 Noroeste 30 Oeste 0 -- -- 88
2021-02-12 10:00:00 9.1 18 Oeste 26 Oeste 0 -- -- 98
2021-02-12 09:00:00 8.4 14 Oeste 25 Oeste 0 -- -- 98
2021-02-12 08:00:00 8.4 15 Oeste 21 Oeste 0 -- -- 97
2021-02-12 07:00:00 9 15 Oeste 37 Oeste 0 -- -- 96
2021-02-12 06:00:00 10.5 31 Oeste 45 Oeste 0.4 -- -- 97
2021-02-12 05:00:00 11 19 Sudoeste 26 Sudoeste 0.2 -- -- 97
2021-02-12 04:00:00 10.9 10 Sudoeste 16 Sudoeste 0 -- -- 96
2021-02-12 03:00:00 11 12 Sudoeste 16 Sudoeste 0 -- -- 95
2021-02-12 02:00:00 10.8 9 Sudoeste 16 Sudoeste 0 -- -- 94
2021-02-12 01:00:00 11 6 Sur 18 Sur 0 -- -- 94
2021-02-12 00:00:00 11 15 Sur 23 Sur 0 -- -- 93
2021-02-11 23:00:00 11.2 8 Sudoeste 18 Sudoeste 0 -- -- 93
2021-02-11 22:00:00 11.1 8 Sudeste 14 Sudeste 0 -- -- 92
2021-02-11 21:00:00 11.1 10 Sudeste 13 Sudeste 0 -- -- 91
2021-02-11 20:00:00 11.8 6 Sur 8 Sur 0 -- -- 89
2021-02-11 19:00:00 12.2 0 Calma 10 Noroeste 0 -- -- 93
2021-02-11 18:00:00 13 11 Oeste 18 Sudoeste 0 -- -- 89
2021-02-11 17:00:00 13.8 10 Sudoeste 18 Sudoeste 0 -- -- 82
2021-02-11 16:00:00 14 12 Sudoeste 24 Sudoeste 0 -- -- 83
2021-02-11 15:00:00 13.6 14 Sur 23 Sudoeste 0 -- -- 86
2021-02-11 14:00:00 13.3 13 Sudoeste 21 Sur 0 -- -- 88
2021-02-11 13:00:00 13 12 Sudoeste 20 Sudoeste 0 -- -- 92
2021-02-11 12:00:00 12.8 7 Sudoeste 16 Sudoeste 0 -- -- 92
2021-02-11 11:00:00 12 7 Sudeste 10 Sudeste 0 -- -- 97
2021-02-11 10:00:00 10.6 8 Sudeste 12 Sudeste 0 -- -- 99
2021-02-11 09:00:00 9.6 8 Sudeste 10 Sudeste 0 -- -- 99
2021-02-11 08:00:00 9.6 5 Este 17 Sudeste 0 -- -- 99
2021-02-11 07:00:00 10.1 9 Sur 15 Sudeste 0 -- -- 99
2021-02-11 06:00:00 10.4 6 Sudoeste 14 Sudoeste 0 -- -- 99
2021-02-11 05:00:00 10.6 11 Sudoeste 17 Sudoeste 0 -- -- 99
2021-02-11 04:00:00 10.7 10 Sudoeste 20 Sudoeste 0 -- -- 99
2021-02-11 03:00:00 10.4 11 Sudoeste 20 Sudoeste 0 -- -- 99
2021-02-11 02:00:00 10.8 18 Sudoeste 24 Sudoeste 0 -- -- 99
2021-02-11 01:00:00 11.4 18 Sudoeste 25 Sudoeste 0 -- -- 99
2021-02-11 00:00:00 11.8 18 Sudoeste 24 Sudoeste 0.2 -- -- 99
2021-02-10 23:00:00 12 15 Oeste 25 Sudoeste 0.2 -- -- 99
2021-02-10 22:00:00 12.2 21 Oeste 31 Sudoeste 0 -- -- 99
2021-02-10 21:00:00 12.5 15 Sudoeste 25 Sudoeste 1.2 -- -- 99
2021-02-10 20:00:00 12.5 12 Oeste 18 Oeste 0.4 -- -- 99
2021-02-10 19:00:00 12.6 15 Oeste 21 Oeste 0.2 -- -- 99
2021-02-10 18:00:00 12.5 14 Oeste 28 Oeste 0 -- -- 99
2021-02-10 17:00:00 12.6 19 Oeste 31 Oeste 0 -- -- 99
2021-02-10 16:00:00 12.4 26 Oeste 34 Oeste 0 -- -- 99
2021-02-10 15:00:00 12.1 24 Oeste 31 Oeste 0 -- -- 99
2021-02-10 14:00:00 11.9 23 Oeste 32 Oeste 0 -- -- 99
2021-02-10 13:00:00 11.4 22 Oeste 32 Oeste 0 -- -- 99
2021-02-10 12:00:00 11.2 25 Oeste 33 Oeste 0.4 -- -- 99
2021-02-10 11:00:00 10.8 19 Oeste 28 Oeste 0.2 -- -- 99
2021-02-10 10:00:00 10.4 20 Oeste 32 Noroeste 1.2 -- -- 99
2021-02-10 09:00:00 10.7 27 Oeste 38 Oeste 0.4 -- -- 99
2021-02-10 08:00:00 10.2 25 Sudoeste 37 Sudoeste 0.2 -- -- 99
2021-02-10 07:00:00 9.7 22 Sudoeste 37 Oeste 0.4 -- -- 99
2021-02-10 06:00:00 9.5 27 Sudoeste 39 Sudoeste 0.4 -- -- 98
2021-02-10 05:00:00 9.3 29 Sudoeste 59 Sudoeste 0.8 -- -- 97
2021-02-10 04:00:00 9.7 41 Sudoeste 54 Sudoeste 0 -- -- 93
2021-02-10 03:00:00 9.4 37 Sudoeste 47 Sudoeste 0 -- -- 91
2021-02-10 02:00:00 8.6 30 Sudoeste 45 Sudoeste 0.4 -- -- 96
2021-02-10 01:00:00 8.8 32 Sudoeste 49 Sudoeste 0 -- -- 88
2021-02-10 00:00:00 8.8 33 Sudoeste 48 Sudoeste 0 -- -- 91
2021-02-09 23:00:00 9.3 39 Sudoeste 61 Sudoeste 0 -- -- 90
2021-02-09 22:00:00 9.6 37 Sudoeste 49 Sudoeste 0 -- -- 89
2021-02-09 21:00:00 9.3 33 Sudoeste 49 Sudoeste 0 -- -- 94
2021-02-09 20:00:00 9.4 37 Sudoeste 50 Sudoeste 0 -- -- 95
2021-02-09 19:00:00 9.3 28 Sudoeste 54 Sudoeste 0.4 -- -- 95
2021-02-09 18:00:00 9.8 36 Oeste 48 Oeste 1.2 -- -- 95
2021-02-09 17:00:00 10 31 Sudoeste 59 Sudoeste 2.4 -- -- 96
2021-02-09 16:00:00 10.5 48 Sudoeste 71 Sudoeste 0 -- -- 90
2021-02-09 15:00:00 10.7 45 Sudoeste 67 Sudoeste 0.4 -- -- 87
2021-02-09 14:00:00 10.2 40 Sudoeste 61 Sudoeste 1 -- -- 94
2021-02-09 13:00:00 9.9 41 Sudoeste 68 Sudoeste 1.2 -- -- 93
2021-02-09 12:00:00 10.1 43 Sudoeste 58 Sudoeste 0 -- -- 91
2021-02-09 11:00:00 10 42 Sudoeste 61 Sur 0 -- -- 89
2021-02-09 10:00:00 9.8 42 Sudoeste 56 Sur 0 -- -- 87
2021-02-09 09:00:00 9.4 36 Sudoeste 55 Sur 0 -- -- 86
2021-02-09 08:00:00 8.9 38 Sudoeste 50 Sudoeste 0 -- -- 87
2021-02-09 07:00:00 8.8 34 Sudoeste 46 Sudoeste 0 -- -- 85
2021-02-09 06:00:00 8.4 32 Sudoeste 46 Sudoeste 0 -- -- 87
2021-02-09 05:00:00 8.3 28 Sudoeste 38 Sudoeste 0 -- -- 89
2021-02-09 04:00:00 8.2 28 Sudoeste 33 Sudoeste 0 -- -- 90
2021-02-09 03:00:00 8.1 24 Sudoeste 33 Sudoeste 0 -- -- 93
2021-02-09 02:00:00 7.7 23 Sudoeste 30 Sudoeste 0 -- -- 94
2021-02-09 01:00:00 7.6 19 Sudoeste 25 Sudoeste 0 -- -- 93
2021-02-09 00:00:00 6.8 15 Sudoeste 25 Sudoeste 0 -- -- 95
2021-02-08 23:00:00 7.1 21 Sudoeste 32 Sudoeste 0 -- -- 93
2021-02-08 22:00:00 7.8 24 Sudoeste 34 Sudoeste 0 -- -- 91
2021-02-08 21:00:00 8.1 21 Sudoeste 33 Sudoeste 0 -- -- 91
2021-02-08 20:00:00 8.3 23 Sudoeste 39 Sudoeste 0 -- -- 90
2021-02-08 19:00:00 8.9 23 Sudoeste 39 Sudoeste 0 -- -- 88
2021-02-08 18:00:00 9.7 28 Sudoeste 45 Oeste 0 -- -- 82
2021-02-08 17:00:00 10.4 30 Oeste 53 Oeste 0 -- -- 79
2021-02-08 16:00:00 11.7 42 Oeste 60 Oeste 0 -- -- 73
2021-02-08 15:00:00 11 37 Oeste 59 Sudoeste 0 -- -- 78
2021-02-08 14:00:00 11 41 Oeste 54 Oeste 0 -- -- 81
2021-02-08 13:00:00 10.4 42 Oeste 60 Sudoeste 0 -- -- 84
2021-02-08 12:00:00 9.2 40 Oeste 61 Oeste 0 -- -- 88
2021-02-08 11:00:00 8.6 36 Oeste 47 Oeste 0 -- -- 90
2021-02-08 10:00:00 7.9 31 Oeste 44 Oeste 0 -- -- 93
2021-02-08 09:00:00 7.4 30 Oeste 47 Oeste 0 -- -- 94
2021-02-08 08:00:00 7.5 31 Oeste 41 Oeste 0 -- -- 94
2021-02-08 07:00:00 7.3 31 Oeste 41 Oeste 0 -- -- 95
2021-02-08 06:00:00 7.2 31 Oeste 53 Oeste 0 -- -- 93
2021-02-08 05:00:00 8.1 46 Oeste 77 Oeste 2.4 -- -- 92
2021-02-08 04:00:00 9.8 29 Sudoeste 45 Sur 1.6 -- -- 95
2021-02-08 03:00:00 9.4 30 Sudoeste 51 Sur 0.8 -- -- 95
2021-02-08 02:00:00 8.8 34 Sur 52 Sur 0 -- -- 95
2021-02-08 01:00:00 8.2 42 Sur 53 Sur 0 -- -- 94
2021-02-08 00:00:00 8 28 Sur 38 Sur 0 -- -- 91
2021-02-07 23:00:00 7.9 27 Sudoeste 42 Sudoeste 0 -- -- 92
2021-02-07 22:00:00 7.7 25 Sudoeste 31 Sudoeste 0 -- -- 92
2021-02-07 21:00:00 7.3 14 Sudoeste 33 Sudoeste 0 -- -- 93
2021-02-07 20:00:00 7.1 21 Sudoeste 33 Sudoeste 0 -- -- 92
2021-02-07 19:00:00 7 23 Sudoeste 36 Sudoeste 0 -- -- 91
2021-02-07 18:00:00 7.7 27 Oeste 44 Oeste 0 -- -- 84
2021-02-07 17:00:00 7.7 27 Oeste 37 Oeste 0 -- -- 83
2021-02-07 16:00:00 7.4 29 Oeste 40 Oeste 0 -- -- 81
2021-02-07 15:00:00 7.3 32 Oeste 41 Oeste 0 -- -- 79
2021-02-07 14:00:00 6.8 31 Oeste 43 Oeste 0 -- -- 82
2021-02-07 13:00:00 7.2 28 Oeste 38 Oeste 0 -- -- 81
2021-02-07 12:00:00 6.9 22 Oeste 30 Oeste 0 -- -- 86
2021-02-07 11:00:00 5.6 18 Oeste 26 Oeste 0 -- -- 100
2021-02-07 10:00:00 5 21 Oeste 28 Oeste 0 -- -- 99
2021-02-07 09:00:00 5.3 22 Oeste 28 Oeste 0 -- -- 99
2021-02-07 08:00:00 5.4 15 Oeste 29 Oeste 0 -- -- 99
2021-02-07 07:00:00 6.2 20 Oeste 27 Oeste 0 -- -- 99
2021-02-07 06:00:00 6.5 19 Oeste 26 Oeste 0 -- -- 99
2021-02-07 05:00:00 6.9 14 Oeste 21 Noroeste 0 -- -- 99
2021-02-07 04:00:00 7.1 12 Oeste 18 Noroeste 0 -- -- 99
2021-02-07 03:00:00 7 15 Noroeste 19 Noroeste 0 -- -- 99
2021-02-07 02:00:00 7 11 Noroeste 19 Oeste 0 -- -- 99
2021-02-07 01:00:00 7 12 Noroeste 22 Noroeste 0.2 -- -- 99
2021-02-07 00:00:00 7 17 Noroeste 22 Oeste 0 -- -- 99
2021-02-06 23:00:00 6.9 11 Oeste 17 Oeste 0 -- -- 98
2021-02-06 22:00:00 6.9 13 Oeste 18 Oeste 0 -- -- 98
2021-02-06 21:00:00 6.9 12 Oeste 17 Sudoeste 0.2 -- -- 98
2021-02-06 20:00:00 6.7 7 Sudoeste 18 Oeste 1.4 -- -- 98
2021-02-06 19:00:00 6.7 17 Oeste 26 Oeste 0.6 -- -- 97
2021-02-06 18:00:00 7.2 18 Oeste 30 Oeste 0.2 -- -- 96
2021-02-06 17:00:00 8 20 Oeste 30 Oeste 0 -- -- 92
2021-02-06 16:00:00 8.3 22 Oeste 28 Oeste 0 -- -- 92
2021-02-06 15:00:00 8.1 21 Oeste 33 Oeste 0.8 -- -- 96
2021-02-06 14:00:00 8.6 19 Oeste 29 Oeste 0 -- -- 93
2021-02-06 13:00:00 8.8 19 Oeste 24 Oeste 0 -- -- 95
2021-02-06 12:00:00 8.1 19 Sudoeste 27 Sudoeste 0.6 -- -- 97
2021-02-06 11:00:00 8 13 Sudoeste 22 Sudoeste 0.2 -- -- 98
2021-02-06 10:00:00 7.5 14 Sudoeste 19 Sudoeste 0 -- -- 98
2021-02-06 09:00:00 7 14 Oeste 31 Sudoeste 0 -- -- 97
2021-02-06 08:00:00 7 23 Sudoeste 30 Sudoeste 0 -- -- 97
2021-02-06 07:00:00 7 16 Sudoeste 25 Sudoeste 0 -- -- 97
2021-02-06 06:00:00 6.8 14 Sudoeste 23 Sudoeste 0 -- -- 96
2021-02-06 05:00:00 6.8 14 Sudoeste 21 Sudoeste 0 -- -- 97
2021-02-06 04:00:00 7.2 15 Sudoeste 22 Sudoeste 0 -- -- 97
2021-02-06 03:00:00 7.8 12 Sudoeste 17 Sudoeste 0.2 -- -- 97
2021-02-06 02:00:00 8 11 Sudoeste 14 Sudoeste 0.2 -- -- 97
2021-02-06 01:00:00 8.3 7 Sur 14 Sur 1.4 -- -- 97
2021-02-06 00:00:00 8.4 10 Sur 19 Sudeste 0.6 -- -- 96
2021-02-05 23:00:00 8.3 9 Sur 19 Sur 0 -- -- 94
2021-02-05 22:00:00 8.3 15 Sur 27 Sur 0 -- -- 93
2021-02-05 21:00:00 8.8 19 Sur 39 Sur 0.2 -- -- 93
2021-02-05 20:00:00 8.9 27 Sur 43 Sur 0 -- -- 94
2021-02-05 19:00:00 8.8 31 Sur 44 Sur 0 -- -- 91
2021-02-05 18:00:00 9.3 26 Sudeste 39 Sudeste 0.4 -- -- 93
2021-02-05 17:00:00 9.3 23 Este 36 Sudeste 1.2 -- -- 94
2021-02-05 16:00:00 9.6 17 Este 30 Sudeste 0.6 -- -- 92
2021-02-05 15:00:00 9.6 19 Este 32 Este 0.2 -- -- 96
2021-02-05 14:00:00 9.2 12 Sudeste 19 Este 0.4 -- -- 98
2021-02-05 13:00:00 8.6 7 Este 17 Sudoeste 3.4 -- -- 98
2021-02-05 12:00:00 8.8 4 Oeste 14 Oeste 6 -- -- 98
2021-02-05 11:00:00 9.1 9 Norte 17 Nordeste 0 -- -- 98
2021-02-05 10:00:00 8.7 9 Nordeste 14 Nordeste 1.6 -- -- 99
2021-02-05 09:00:00 8.3 6 Oeste 13 Norte 0.2 -- -- 98
2021-02-05 08:00:00 8.2 4 Sudoeste 14 Norte 0 -- -- 98
2021-02-05 07:00:00 7.9 10 Norte 14 Norte 0 -- -- 98
2021-02-05 06:00:00 7.9 5 Norte 17 Sudoeste 0 -- -- 98
2021-02-05 05:00:00 8.5 5 Sudoeste 17 Este 0.2 -- -- 98
2021-02-05 04:00:00 8.8 7 Este 16 Nordeste 0.2 -- -- 98
2021-02-05 03:00:00 8.7 5 Este 16 Este 0 -- -- 98
2021-02-05 02:00:00 8.9 11 Este 19 Este 0.4 -- -- 99
2021-02-05 01:00:00 8.5 18 Este 21 Este 0 -- -- 99
2021-02-05 00:00:00 7.9 14 Este 16 Este 0 -- -- 98
2021-02-04 23:00:00 7.3 2 Noroeste 10 Nordeste 0 -- -- 98
2021-02-04 22:00:00 7.8 8 Nordeste 18 Este 0 -- -- 98
2021-02-04 21:00:00 7.4 12 Nordeste 15 Este 0 -- -- 97
2021-02-04 20:00:00 8.5 12 Este 17 Este 0 -- -- 96
2021-02-04 19:00:00 9.1 12 Nordeste 19 Nordeste 0 -- -- 97
2021-02-04 18:00:00 9 15 Nordeste 31 Norte 0 -- -- 96
2021-02-04 17:00:00 9.2 23 Norte 28 Noroeste 0.8 -- -- 96
2021-02-04 16:00:00 11.8 23 Sur 36 Sur 0 -- -- 88
2021-02-04 15:00:00 11.4 18 Sur 32 Sur 0 -- -- 90
2021-02-04 14:00:00 11.1 19 Sur 41 Sur 0 -- -- 88
2021-02-04 13:00:00 11.3 26 Sur 51 Sur 0 -- -- 90
2021-02-04 12:00:00 11 35 Sudeste 47 Sudeste 0 -- -- 92
2021-02-04 11:00:00 10 30 Sudeste 39 Sudeste 0 -- -- 95
2021-02-04 10:00:00 9.5 15 Este 33 Sudeste 0 -- -- 96
2021-02-04 09:00:00 9.4 29 Sudeste 40 Sudeste 0 -- -- 95
2021-02-04 08:00:00 9.5 23 Sudeste 30 Sudeste 0 -- -- 95
2021-02-04 07:00:00 9.7 19 Sudeste 26 Sudeste 0 -- -- 96
2021-02-04 06:00:00 10 15 Sudeste 24 Sur 0 -- -- 96
2021-02-04 05:00:00 10.1 15 Sudeste 23 Sudeste 0 -- -- 97
2021-02-04 04:00:00 10.3 5 Sudeste 10 Sudeste 0.2 -- -- 97
2021-02-04 03:00:00 10.3 4 Sudeste 10 Sudeste 0 -- -- 96
2021-02-04 02:00:00 10.4 4 Sudeste 6 Sudeste 0 -- -- 96
2021-02-04 01:00:00 10.5 4 Sur 23 Sur 0 -- -- 95
2021-02-04 00:00:00 10.8 16 Sur 27 Sur 0 -- -- 92
2021-02-03 23:00:00 10.5 22 Sur 30 Sur 0 -- -- 93
2021-02-03 22:00:00 10.7 26 Sur 35 Sur 0 -- -- 91
2021-02-03 21:00:00 11 28 Sur 36 Sur 0 -- -- 89
2021-02-03 20:00:00 10.8 20 Sur 43 Sur 0 -- -- 89
2021-02-03 19:00:00 11.3 21 Sur 33 Sur 0 -- -- 87
2021-02-03 18:00:00 11.9 16 Sur 27 Sudeste 0 -- -- 85
2021-02-03 17:00:00 13.8 15 Sur 35 Sur 0 -- -- 80
2021-02-03 16:00:00 13.1 18 Sudeste 30 Sudeste 0 -- -- 82
2021-02-03 15:00:00 13.7 19 Sur 27 Sudoeste 0 -- -- 82
2021-02-03 14:00:00 12.2 18 Sudeste 25 Sudeste 0 -- -- 82
2021-02-03 13:00:00 12.5 13 Sudeste 24 Sur 0 -- -- 82
2021-02-03 12:00:00 13 13 Sur 23 Sudeste 0 -- -- 79
2021-02-03 11:00:00 11.2 13 Sudeste 18 Sudeste 0 -- -- 84
2021-02-03 10:00:00 10.1 13 Sur 20 Sur 0 -- -- 86
2021-02-03 09:00:00 9.5 13 Sur 17 Sur 0 -- -- 87
2021-02-03 08:00:00 9.1 14 Sudeste 23 Sudeste 0 -- -- 88
2021-02-03 07:00:00 8.7 17 Sudeste 19 Sudeste 0 -- -- 89
2021-02-03 06:00:00 8.6 10 Sur 13 Sur 0 -- -- 87
2021-02-03 05:00:00 8.9 8 Sur 23 Sudoeste 0 -- -- 85
2021-02-03 04:00:00 9.3 13 Sudoeste 22 Sudoeste 0 -- -- 86
2021-02-03 03:00:00 9.5 13 Sudoeste 21 Sudoeste 0 -- -- 92
2021-02-03 02:00:00 9.7 13 Sudoeste 20 Sudoeste 0 -- -- 90
2021-02-03 01:00:00 10 13 Oeste 22 Oeste 0 -- -- 91
2021-02-03 00:00:00 10.6 12 Sudoeste 20 Sudoeste 0 -- -- 91